Brooklyn Center, Minnesota
Current Conditions -  °F | °C
As of 8:53 PM on Wednesday 22 Oct 2014 (Local Time) from KMIC Reporting Station
Broken Clouds Broken Clouds  
Wind Chill: 58°   Ceiling: 8500
Heat Index: 58°   Visibility: 10mi
Dew Point: 40°   Wind: 12mph
Humidity: 51%   Direction: 160°SSE
Pressure: 30.03"   Gusts: 22mph
Location:  45.07°N, 93.31°W
Report Text: KMIC 230153Z AUTO 16010G19KT 10SM BKN085 14/04 A3003 RMK AO2 SLP174 T01440044
Loading
Personal Weather Stations






























Interactive Weather Map
Tropical Storm Tracking
New forecast layout! Learn more

10-Day Weather Forecast

Advertisements
Track Severe Weather on mobile